Time;durP1;ratioP1;P1;durP2;ratioP2;P2;SDS_P1;SDS_P2;PMS_P1;PMS_P2;Temp;Humidity;BMP_temperature;BMP_pressure;BME280_temperature;BME280_humidity;BME280_pressure;Samples;Min_cycle;Max_cycle;Signal;HPM_P1;HPM_P2
2023/12/05 00:00:34;;;;;;;11.68;5.95;;;2.10;99.90;;;;;;5096164;28;20046;-87
2023/12/05 00:03:01;;;;;;;14.18;6.45;;;2.10;99.90;;;;;;5095733;28;20469;-86
2023/12/05 00:05:26;;;;;;;13.00;6.20;;;2.10;99.90;;;;;;5092760;28;20406;-86
2023/12/05 00:07:52;;;;;;;11.88;4.97;;;2.10;99.90;;;;;;5113488;28;20038;-87
2023/12/05 00:10:17;;;;;;;13.45;5.63;;;2.10;99.90;;;;;;5095814;28;20559;-88
2023/12/05 00:12:43;;;;;;;12.23;6.47;;;2.10;99.90;;;;;;5095811;28;20063;-87
2023/12/05 00:15:09;;;;;;;13.23;6.32;;;2.10;99.90;;;;;;5096134;28;20391;-87
2023/12/05 00:17:34;;;;;;;11.75;5.88;;;2.10;99.90;;;;;;5112478;28;20117;-87
2023/12/05 00:20:00;;;;;;;12.60;6.55;;;2.10;99.90;;;;;;5112687;28;20036;-87
2023/12/05 00:22:26;;;;;;;13.75;7.20;;;2.10;99.90;;;;;;5112546;28;20035;-87
2023/12/05 00:24:52;;;;;;;13.13;6.15;;;2.10;99.90;;;;;;5095873;28;20055;-87
2023/12/05 00:27:18;;;;;;;14.98;8.02;;;2.10;99.90;;;;;;5112605;28;20112;-87
2023/12/05 00:29:43;;;;;;;12.88;6.90;;;2.10;99.90;;;;;;5112787;28;20051;-87
2023/12/05 00:32:09;;;;;;;14.38;7.38;;;2.10;99.90;;;;;;5095413;28;20044;-87
2023/12/05 00:34:34;;;;;;;13.05;6.50;;;2.10;99.90;;;;;;5112360;28;20219;-86
2023/12/05 00:37:00;;;;;;;11.23;5.13;;;2.10;99.90;;;;;;5095124;28;20074;-87
2023/12/05 00:39:26;;;;;;;15.05;7.20;;;2.10;99.90;;;;;;5095467;28;20049;-87
2023/12/05 00:41:51;;;;;;;14.20;6.47;;;2.10;99.90;;;;;;5094513;28;20106;-87
2023/12/05 00:44:17;;;;;;;14.95;7.47;;;2.10;99.90;;;;;;5112556;28;20040;-86
2023/12/05 00:46:43;;;;;;;14.88;6.20;;;2.10;99.90;;;;;;5111938;28;20036;-86
2023/12/05 00:49:08;;;;;;;12.10;5.90;;;2.10;99.90;;;;;;5095589;28;20040;-87
2023/12/05 00:51:34;;;;;;;15.23;5.93;;;2.00;99.90;;;;;;5112458;28;20498;-87
2023/12/05 00:53:59;;;;;;;13.73;6.13;;;2.10;99.90;;;;;;5095334;28;20032;-86
2023/12/05 00:56:25;;;;;;;12.73;6.10;;;2.10;99.90;;;;;;5095219;28;20219;-86
2023/12/05 00:58:51;;;;;;;15.00;7.32;;;2.10;99.90;;;;;;5094899;28;20036;-87
2023/12/05 01:01:18;;;;;;;14.20;6.60;;;2.00;99.90;;;;;;5094397;28;20031;-86
2023/12/05 01:03:44;;;;;;;14.68;6.20;;;2.10;99.90;;;;;;5094771;28;20036;-87
2023/12/05 01:06:10;;;;;;;14.27;7.65;;;2.00;99.90;;;;;;5095461;28;20036;-87
2023/12/05 01:08:35;;;;;;;11.30;6.15;;;2.00;99.90;;;;;;5095103;28;20036;-87
2023/12/05 01:11:01;;;;;;;14.02;8.18;;;2.00;99.90;;;;;;5096530;28;20406;-88
2023/12/05 01:13:26;;;;;;;14.43;6.13;;;2.00;99.90;;;;;;5095163;28;20047;-88
2023/12/05 01:15:52;;;;;;;11.05;5.30;;;2.00;99.90;;;;;;5110682;28;20502;-87
2023/12/05 01:18:18;;;;;;;11.43;5.28;;;2.00;99.90;;;;;;5094399;28;20406;-87
2023/12/05 01:20:43;;;;;;;14.02;6.57;;;2.00;99.90;;;;;;5094866;28;20031;-87
2023/12/05 01:23:09;;;;;;;13.45;6.90;;;2.00;99.90;;;;;;5094391;28;20032;-86
2023/12/05 01:25:35;;;;;;;13.93;7.70;;;2.00;99.90;;;;;;5111883;28;20038;-86
2023/12/05 01:28:00;;;;;;;13.85;6.90;;;2.00;99.90;;;;;;5111031;28;20542;-86
2023/12/05 01:30:26;;;;;;;14.07;7.00;;;2.00;99.90;;;;;;5111131;28;20066;-86
2023/12/05 01:32:51;;;;;;;10.68;6.10;;;2.00;99.90;;;;;;5094297;28;20082;-86
2023/12/05 01:35:17;;;;;;;14.10;6.65;;;2.00;99.90;;;;;;5094514;28;20050;-86
2023/12/05 01:37:43;;;;;;;12.02;5.88;;;2.00;99.90;;;;;;5094116;28;20532;-86
2023/12/05 01:40:09;;;;;;;11.98;6.03;;;2.00;99.90;;;;;;5100493;27;20035;-86
2023/12/05 01:42:38;;;;;;;11.73;5.80;;;2.00;99.90;;;;;;5131672;27;20084;-86
2023/12/05 01:45:08;;;;;;;13.77;7.15;;;2.00;99.90;;;;;;5117007;27;20092;-86
2023/12/05 01:47:35;;;;;;;10.60;5.78;;;2.00;99.90;;;;;;5111112;28;20046;-86
2023/12/05 01:50:03;;;;;;;12.77;5.78;;;2.00;99.90;;;;;;5094337;28;20043;-87
2023/12/05 01:52:30;;;;;;;14.45;7.38;;;2.00;99.90;;;;;;5093619;28;20047;-87
2023/12/05 01:54:56;;;;;;;15.00;7.43;;;2.00;99.90;;;;;;5093865;28;20044;-87
2023/12/05 01:57:23;;;;;;;14.43;7.55;;;2.00;99.90;;;;;;5093709;28;20089;-88
2023/12/05 01:59:50;;;;;;;15.15;7.57;;;2.00;99.90;;;;;;5110849;28;20049;-88
2023/12/05 02:02:16;;;;;;;14.18;7.60;;;2.00;99.90;;;;;;5094049;28;20040;-87
2023/12/05 02:04:43;;;;;;;12.75;6.28;;;2.00;99.90;;;;;;5111132;28;20050;-88
2023/12/05 02:07:08;;;;;;;12.75;6.07;;;2.00;99.90;;;;;;5094012;28;20081;-88
2023/12/05 02:09:37;;;;;;;12.52;6.65;;;2.00;99.90;;;;;;5110868;28;20039;-87
2023/12/05 02:12:03;;;;;;;13.95;7.45;;;2.00;99.90;;;;;;5093940;28;20448;-88
2023/12/05 02:14:29;;;;;;;12.63;6.93;;;2.10;99.90;;;;;;5093507;28;20126;-87
2023/12/05 02:17:10;;;;;;;13.73;7.85;;;2.10;99.90;;;;;;5110625;28;20077;-87
2023/12/05 02:19:42;;;;;;;12.93;7.50;;;2.10;99.90;;;;;;5093633;28;20032;-87
2023/12/05 02:22:56;;;;;;;12.27;6.53;;;2.10;99.90;;;;;;5093184;28;20127;-88
2023/12/05 02:25:27;;;;;;;12.63;6.82;;;2.00;99.90;;;;;;5093526;28;20079;-87
2023/12/05 02:27:54;;;;;;;12.05;6.30;;;2.00;99.90;;;;;;5110665;28;20529;-88
2023/12/05 02:30:19;;;;;;;15.55;7.43;;;2.10;99.90;;;;;;5110399;28;20502;-88
2023/12/05 02:32:45;;;;;;;12.52;6.72;;;2.10;99.90;;;;;;5093472;28;20092;-88
2023/12/05 02:35:12;;;;;;;13.30;6.93;;;2.00;99.90;;;;;;5110231;28;20044;-88
2023/12/05 02:38:05;;;;;;;14.00;8.05;;;2.00;99.90;;;;;;5110637;28;20138;-88
2023/12/05 02:40:50;;;;;;;11.48;6.25;;;2.00;99.90;;;;;;5110434;28;20035;-88
2023/12/05 02:43:23;;;;;;;13.23;6.30;;;2.10;99.90;;;;;;5093550;28;20093;-88
2023/12/05 02:45:52;;;;;;;12.75;6.63;;;2.10;99.90;;;;;;5110050;28;20503;-88
2023/12/05 02:48:18;;;;;;;13.57;7.30;;;2.10;99.90;;;;;;5109853;28;20131;-88
2023/12/05 02:50:45;;;;;;;11.35;5.78;;;2.10;99.90;;;;;;5092738;28;20041;-88
2023/12/05 02:53:11;;;;;;;15.75;8.40;;;2.10;99.90;;;;;;5110094;28;20039;-87
2023/12/05 02:55:38;;;;;;;14.32;8.30;;;2.10;99.90;;;;;;5110056;28;20066;-87
2023/12/05 02:58:03;;;;;;;14.02;6.80;;;2.10;99.90;;;;;;5092979;28;20040;-87
2023/12/05 03:00:29;;;;;;;15.40;8.20;;;2.10;99.90;;;;;;5093369;28;20054;-88
2023/12/05 03:02:55;;;;;;;14.73;7.88;;;2.10;99.90;;;;;;5093083;28;20027;-87
2023/12/05 03:05:20;;;;;;;14.32;7.82;;;2.10;99.90;;;;;;5112808;28;20406;-88
2023/12/05 03:07:46;;;;;;;16.67;9.25;;;2.10;99.90;;;;;;5114471;28;20043;-87
2023/12/05 03:10:11;;;;;;;13.95;7.82;;;2.10;99.90;;;;;;5097098;28;20067;-87
2023/12/05 03:12:37;;;;;;;12.90;6.97;;;2.10;99.90;;;;;;5113911;28;20440;-87
2023/12/05 03:15:03;;;;;;;15.15;8.40;;;2.10;99.90;;;;;;5114067;28;20082;-87
2023/12/05 03:17:29;;;;;;;14.35;7.72;;;2.10;99.90;;;;;;5114188;28;20031;-88
2023/12/05 03:19:54;;;;;;;14.75;7.57;;;2.10;99.90;;;;;;5114281;28;20076;-87
2023/12/05 03:22:20;;;;;;;12.48;6.68;;;2.10;99.90;;;;;;5113817;28;20384;-87
2023/12/05 03:24:46;;;;;;;13.38;7.15;;;2.10;99.90;;;;;;5114098;28;20039;-88
2023/12/05 03:27:11;;;;;;;13.00;6.65;;;2.10;99.90;;;;;;5096858;28;20409;-88
2023/12/05 03:29:37;;;;;;;14.75;6.10;;;2.10;99.90;;;;;;5097510;28;20035;-88
2023/12/05 03:32:03;;;;;;;13.25;6.18;;;2.10;99.90;;;;;;5115080;28;20051;-87
2023/12/05 03:34:28;;;;;;;13.23;6.75;;;2.10;99.90;;;;;;5115832;28;20498;-87
2023/12/05 03:36:54;;;;;;;13.75;7.20;;;2.10;99.90;;;;;;5096908;28;20039;-88
2023/12/05 03:39:19;;;;;;;11.85;5.97;;;2.10;99.90;;;;;;5113652;28;20040;-87
2023/12/05 03:41:47;;;;;;;12.57;6.30;;;2.10;99.90;;;;;;5113697;28;20035;-88
2023/12/05 03:44:13;;;;;;;12.00;6.43;;;2.10;99.90;;;;;;5096779;28;20039;-88
2023/12/05 03:46:38;;;;;;;10.98;5.90;;;2.10;99.90;;;;;;5113624;28;20498;-88
2023/12/05 03:49:04;;;;;;;12.98;6.57;;;2.10;99.90;;;;;;5112874;28;20042;-88
2023/12/05 03:51:30;;;;;;;15.07;7.95;;;2.10;99.90;;;;;;5113327;28;20456;-88
2023/12/05 03:53:56;;;;;;;15.63;8.32;;;2.20;99.90;;;;;;5113227;28;20118;-88
2023/12/05 03:56:22;;;;;;;14.48;8.30;;;2.20;99.90;;;;;;5113046;28;20059;-88
2023/12/05 03:58:47;;;;;;;15.63;8.05;;;2.10;99.90;;;;;;5112978;28;20031;-88
2023/12/05 04:01:13;;;;;;;14.00;7.65;;;2.10;99.90;;;;;;5096445;28;20032;-88
2023/12/05 04:03:38;;;;;;;15.07;7.53;;;2.10;99.90;;;;;;5113133;28;20407;-88
2023/12/05 04:06:04;;;;;;;14.55;7.55;;;2.10;99.90;;;;;;5113344;28;20406;-88
2023/12/05 04:08:30;;;;;;;13.45;7.00;;;2.10;99.90;;;;;;5113052;28;20123;-87
2023/12/05 04:10:56;;;;;;;15.73;9.10;;;2.10;99.90;;;;;;5096232;28;20130;-87
2023/12/05 04:13:21;;;;;;;14.48;8.55;;;2.10;99.90;;;;;;5095905;28;20456;-88
2023/12/05 04:15:47;;;;;;;15.80;8.85;;;2.10;99.90;;;;;;5094559;28;20039;-88
2023/12/05 04:18:12;;;;;;;15.40;8.90;;;2.10;99.90;;;;;;5095853;28;20047;-88
2023/12/05 04:20:38;;;;;;;18.00;9.68;;;2.10;99.90;;;;;;5096058;28;20040;-88
2023/12/05 04:23:03;;;;;;;15.65;8.45;;;2.10;99.90;;;;;;5112753;28;20535;-88
2023/12/05 04:25:29;;;;;;;15.15;9.25;;;2.10;99.90;;;;;;5095786;28;20091;-88
2023/12/05 04:27:55;;;;;;;14.23;7.53;;;2.10;99.90;;;;;;5112599;28;20122;-88
2023/12/05 04:30:20;;;;;;;13.02;6.55;;;2.10;99.90;;;;;;5112751;28;20039;-87
2023/12/05 04:32:46;;;;;;;13.70;7.50;;;2.20;99.90;;;;;;5095715;28;20531;-88
2023/12/05 04:35:12;;;;;;;17.65;9.73;;;2.10;99.90;;;;;;5112612;28;20123;-88
2023/12/05 04:37:37;;;;;;;18.65;10.40;;;2.20;99.90;;;;;;5112585;28;20498;-88
2023/12/05 04:40:04;;;;;;;16.13;8.35;;;2.20;99.90;;;;;;5109635;27;20031;-88
2023/12/05 04:42:29;;;;;;;17.50;9.55;;;2.20;99.90;;;;;;5133209;27;20035;-88
2023/12/05 04:44:55;;;;;;;12.55;8.07;;;2.20;99.90;;;;;;5102067;28;20089;-88
2023/12/05 04:47:20;;;;;;;16.30;9.65;;;2.10;99.90;;;;;;5095334;28;20415;-87
2023/12/05 04:49:46;;;;;;;18.17;9.82;;;2.10;99.90;;;;;;5094914;28;20122;-88
2023/12/05 04:52:12;;;;;;;17.05;8.80;;;2.10;99.90;;;;;;5094939;28;20055;-88
2023/12/05 04:54:38;;;;;;;13.85;7.72;;;2.20;99.90;;;;;;5111852;28;20039;-87
2023/12/05 04:57:04;;;;;;;16.58;9.40;;;2.10;99.90;;;;;;5112520;28;20097;-88
2023/12/05 04:59:29;;;;;;;16.05;8.50;;;2.10;99.90;;;;;;5112260;28;20510;-88
2023/12/05 05:01:55;;;;;;;16.58;7.47;;;2.10;99.90;;;;;;5112336;28;20067;-88
2023/12/05 05:04:20;;;;;;;18.20;9.63;;;2.20;99.90;;;;;;5112017;28;20089;-88
2023/12/05 05:06:46;;;;;;;18.60;9.70;;;2.20;99.90;;;;;;5112091;28;20070;-88
2023/12/05 05:09:12;;;;;;;19.23;9.60;;;2.20;99.90;;;;;;5094718;28;20047;-88
2023/12/05 05:11:37;;;;;;;17.88;10.95;;;2.10;99.90;;;;;;5111775;28;20047;-88
2023/12/05 05:14:03;;;;;;;18.52;10.13;;;2.20;99.90;;;;;;5094878;28;20040;-87
2023/12/05 05:16:28;;;;;;;14.55;8.48;;;2.20;99.90;;;;;;5094917;28;20082;-87
2023/12/05 05:18:54;;;;;;;15.23;7.40;;;2.20;99.90;;;;;;5111343;28;20039;-88
2023/12/05 05:21:20;;;;;;;14.10;7.38;;;2.10;99.90;;;;;;5111556;28;20164;-88
2023/12/05 05:23:45;;;;;;;16.48;7.95;;;2.20;99.90;;;;;;5094669;28;20375;-88
2023/12/05 05:26:11;;;;;;;17.50;9.15;;;2.20;99.90;;;;;;5111771;28;20130;-87
2023/12/05 05:28:36;;;;;;;14.35;8.38;;;2.20;99.90;;;;;;5093940;28;20039;-88
2023/12/05 05:31:02;;;;;;;13.77;6.97;;;2.20;99.90;;;;;;5111765;28;20047;-87
2023/12/05 05:33:28;;;;;;;15.48;8.60;;;2.20;99.90;;;;;;5094324;28;20045;-88
2023/12/05 05:35:53;;;;;;;18.27;9.85;;;2.20;99.90;;;;;;5111580;28;20043;-86
2023/12/05 05:38:19;;;;;;;15.07;7.50;;;2.20;99.90;;;;;;5111400;28;20547;-87
2023/12/05 05:40:47;;;;;;;13.23;7.60;;;2.20;99.90;;;;;;5111607;28;20027;-87
2023/12/05 05:43:12;;;;;;;17.63;8.30;;;2.20;99.90;;;;;;5110989;28;20082;-87
2023/12/05 05:45:38;;;;;;;16.98;9.07;;;2.20;99.90;;;;;;5094340;28;20101;-87
2023/12/05 05:48:04;;;;;;;20.13;8.30;;;2.20;99.90;;;;;;5094259;28;20080;-86
2023/12/05 05:50:29;;;;;;;19.70;9.05;;;2.20;99.90;;;;;;5111287;28;20498;-88
2023/12/05 05:52:55;;;;;;;20.08;11.05;;;2.20;99.90;;;;;;5111639;28;20039;-87
2023/12/05 05:55:24;;;;;;;17.70;9.18;;;2.20;99.90;;;;;;5097552;28;20044;-87
2023/12/05 05:57:50;;;;;;;19.27;9.82;;;2.20;99.90;;;;;;5112728;28;20038;-87
2023/12/05 06:00:17;;;;;;;18.52;9.40;;;2.20;99.90;;;;;;5093928;28;20036;-88
2023/12/05 06:02:42;;;;;;;20.10;10.77;;;2.20;99.90;;;;;;5093970;28;20161;-88
2023/12/05 06:05:08;;;;;;;18.30;9.13;;;2.20;99.90;;;;;;5110886;28;20523;-88
2023/12/05 06:07:34;;;;;;;15.23;8.35;;;2.20;99.90;;;;;;5110610;28;20047;-88
2023/12/05 06:10:00;;;;;;;19.27;9.98;;;2.20;99.90;;;;;;5093809;28;20040;-87
2023/12/05 06:12:26;;;;;;;19.27;10.68;;;2.20;99.90;;;;;;5093996;28;20418;-88
2023/12/05 06:14:51;;;;;;;17.80;10.02;;;2.20;99.90;;;;;;5144517;27;20070;-87
2023/12/05 06:17:17;;;;;;;16.70;8.00;;;2.20;99.90;;;;;;5110401;28;20116;-88
2023/12/05 06:19:42;;;;;;;20.90;11.15;;;2.20;99.90;;;;;;5093750;28;20502;-88
2023/12/05 06:22:08;;;;;;;20.83;11.52;;;2.20;99.90;;;;;;5110431;28;20035;-87
2023/12/05 06:24:34;;;;;;;18.85;10.05;;;2.20;99.90;;;;;;5093514;28;20042;-88
2023/12/05 06:26:59;;;;;;;21.63;13.27;;;2.20;99.90;;;;;;5093644;28;20039;-88
2023/12/05 06:29:25;;;;;;;18.48;9.82;;;2.30;99.90;;;;;;5093764;28;20065;-87
2023/12/05 06:31:51;;;;;;;21.92;11.68;;;2.20;99.90;;;;;;5110702;28;20078;-88
2023/12/05 06:34:16;;;;;;;20.30;10.25;;;2.20;99.90;;;;;;5093317;28;20044;-88
2023/12/05 06:36:42;;;;;;;20.73;10.43;;;2.20;99.90;;;;;;5110290;28;20031;-88
2023/12/05 06:39:08;;;;;;;22.48;10.65;;;2.20;99.90;;;;;;5099428;27;20043;-88
2023/12/05 06:41:35;;;;;;;17.85;9.38;;;2.20;99.90;;;;;;5113743;27;20031;-89
2023/12/05 06:44:02;;;;;;;21.35;11.68;;;2.20;99.90;;;;;;5108094;28;20031;-88
2023/12/05 06:46:28;;;;;;;17.27;9.23;;;2.20;99.90;;;;;;5093352;28;20115;-87
2023/12/05 06:48:53;;;;;;;18.50;9.70;;;2.20;99.90;;;;;;5093252;28;20127;-88
2023/12/05 06:51:19;;;;;;;17.17;9.60;;;2.20;99.90;;;;;;5110066;28;20039;-88
2023/12/05 06:53:47;;;;;;;14.57;8.00;;;2.20;99.90;;;;;;5093397;28;20040;-87
2023/12/05 06:56:15;;;;;;;21.42;10.15;;;2.20;99.90;;;;;;5093140;28;20039;-88
2023/12/05 06:58:41;;;;;;;17.75;9.23;;;2.20;99.90;;;;;;5093472;28;20047;-88
2023/12/05 07:01:07;;;;;;;16.52;8.70;;;2.20;99.90;;;;;;5093525;28;20392;-88
2023/12/05 07:03:33;;;;;;;19.00;10.95;;;2.20;99.90;;;;;;5110252;28;20089;-88
2023/12/05 07:05:59;;;;;;;22.65;12.15;;;2.20;99.90;;;;;;5109946;28;20469;-88
2023/12/05 07:08:24;;;;;;;17.83;9.55;;;2.20;99.90;;;;;;5109957;28;20128;-88
2023/12/05 07:10:50;;;;;;;24.55;13.50;;;2.20;99.90;;;;;;5093366;28;20039;-88
2023/12/05 07:13:16;;;;;;;19.95;10.88;;;2.20;99.90;;;;;;5093017;28;20414;-88
2023/12/05 07:15:42;;;;;;;24.40;13.52;;;2.20;99.90;;;;;;5110027;28;20070;-88
2023/12/05 07:18:08;;;;;;;19.05;9.65;;;2.20;99.90;;;;;;5110015;28;20505;-88
2023/12/05 07:20:34;;;;;;;18.60;8.85;;;2.20;99.90;;;;;;5109597;28;20414;-88
2023/12/05 07:23:00;;;;;;;20.55;10.88;;;2.20;99.90;;;;;;5093132;28;20032;-88
2023/12/05 07:25:25;;;;;;;20.13;11.68;;;2.20;99.90;;;;;;5144358;27;20487;-88
2023/12/05 07:27:51;;;;;;;17.33;9.30;;;2.30;99.90;;;;;;5110172;28;20122;-88
2023/12/05 07:30:16;;;;;;;19.15;9.63;;;2.30;99.90;;;;;;5093192;28;20062;-88
2023/12/05 07:32:42;;;;;;;16.10;8.85;;;2.20;99.90;;;;;;5092686;28;20462;-88
2023/12/05 07:35:08;;;;;;;20.10;10.38;;;2.20;99.90;;;;;;5092112;28;20126;-89
2023/12/05 07:37:34;;;;;;;20.27;11.63;;;2.20;99.90;;;;;;5109969;28;20118;-88
2023/12/05 07:39:59;;;;;;;19.15;10.05;;;2.20;99.90;;;;;;5092659;28;20092;-88
2023/12/05 07:42:25;;;;;;;17.73;9.30;;;2.30;99.90;;;;;;5106741;27;20418;-87
2023/12/05 07:44:51;;;;;;;20.80;10.93;;;2.20;99.90;;;;;;5111492;28;20495;-87
2023/12/05 07:47:17;;;;;;;22.00;12.40;;;2.20;99.90;;;;;;5085079;28;20571;-88
2023/12/05 07:49:44;;;;;;;18.58;10.32;;;2.30;99.90;;;;;;5120595;28;20134;-87
2023/12/05 07:52:50;;;;;;;;;;;;;;;;;;;;;
2023/12/05 07:55:57;;;;;;;20.20;10.80;;;2.20;99.90;;;;;;5110822;28;20040;-88
2023/12/05 07:58:23;;;;;;;22.42;12.13;;;2.30;99.90;;;;;;5097996;27;20043;-87
2023/12/05 08:00:48;;;;;;;19.80;10.98;;;2.20;99.90;;;;;;5118777;27;20146;-87
2023/12/05 08:03:14;;;;;;;20.38;11.85;;;2.30;99.90;;;;;;5095995;28;20036;-87
2023/12/05 08:05:40;;;;;;;19.90;9.73;;;2.30;99.90;;;;;;5109375;28;20046;-88
2023/12/05 08:08:06;;;;;;;17.25;9.70;;;2.30;99.90;;;;;;5094112;28;20392;-87
2023/12/05 08:10:35;;;;;;;18.58;9.80;;;2.30;99.90;;;;;;5093702;28;20494;-87
2023/12/05 08:13:01;;;;;;;19.65;9.35;;;2.30;99.90;;;;;;5094825;27;20067;-88
2023/12/05 08:15:27;;;;;;;17.58;9.70;;;2.30;99.90;;;;;;5108978;28;20048;-87
2023/12/05 08:17:55;;;;;;;17.23;10.48;;;2.30;99.90;;;;;;5093857;27;20040;-88
2023/12/05 08:20:21;;;;;;;17.10;9.45;;;2.30;99.90;;;;;;5116623;27;20597;-87
2023/12/05 08:22:46;;;;;;;20.73;10.43;;;2.30;99.90;;;;;;5110994;27;20114;-88
2023/12/05 08:25:12;;;;;;;23.80;12.40;;;2.30;99.90;;;;;;5112395;27;20036;-88
2023/12/05 08:27:38;;;;;;;21.52;10.88;;;2.30;99.90;;;;;;5112867;27;20085;-87
2023/12/05 08:30:04;;;;;;;20.38;10.63;;;2.30;99.90;;;;;;5100186;27;20039;-87
2023/12/05 08:32:30;;;;;;;17.60;9.48;;;2.30;99.90;;;;;;5098461;28;20474;-87
2023/12/05 08:34:56;;;;;;;22.33;9.05;;;2.30;99.90;;;;;;5117131;27;20066;-87
2023/12/05 08:37:22;;;;;;;18.25;10.48;;;2.30;99.90;;;;;;5095117;28;20092;-87
2023/12/05 08:39:48;;;;;;;17.95;9.20;;;2.30;99.90;;;;;;5114543;27;20065;-87
2023/12/05 08:42:14;;;;;;;21.75;11.20;;;2.30;99.90;;;;;;5110263;27;20486;-87
2023/12/05 08:44:39;;;;;;;21.95;10.38;;;2.30;99.90;;;;;;5101870;27;20549;-87
2023/12/05 08:47:05;;;;;;;21.23;11.25;;;2.30;99.90;;;;;;5099412;28;20035;-88
2023/12/05 08:49:30;;;;;;;19.23;10.00;;;2.30;99.90;;;;;;5106641;28;20035;-87
2023/12/05 08:51:56;;;;;;;19.95;9.40;;;2.30;99.90;;;;;;5088391;28;20096;-87
2023/12/05 08:54:22;;;;;;;20.38;11.25;;;2.30;99.90;;;;;;5084554;28;20044;-87
2023/12/05 08:56:47;;;;;;;21.35;11.95;;;2.30;99.90;;;;;;5097110;28;20028;-87
2023/12/05 08:59:13;;;;;;;16.25;10.18;;;2.30;99.90;;;;;;5146109;27;20448;-87
2023/12/05 09:01:39;;;;;;;16.15;9.23;;;2.30;99.90;;;;;;5136639;27;20032;-87
2023/12/05 09:04:04;;;;;;;17.92;9.73;;;2.30;99.90;;;;;;5109227;27;20032;-87
2023/12/05 09:06:30;;;;;;;15.13;8.65;;;2.40;99.90;;;;;;5107093;28;20547;-87
2023/12/05 09:08:57;;;;;;;16.70;9.38;;;2.30;99.90;;;;;;5090530;28;20027;-87
2023/12/05 09:11:23;;;;;;;17.10;9.02;;;2.30;99.90;;;;;;5094732;28;20042;-87
2023/12/05 09:13:48;;;;;;;21.80;11.52;;;2.40;99.90;;;;;;5112428;27;20035;-87
2023/12/05 09:16:14;;;;;;;18.00;10.48;;;2.40;99.90;;;;;;5109482;27;20118;-87
2023/12/05 09:18:40;;;;;;;17.88;8.75;;;2.40;99.90;;;;;;5111251;28;20120;-86
2023/12/05 09:21:06;;;;;;;20.70;11.13;;;2.40;99.90;;;;;;5116457;27;20160;-87
2023/12/05 09:23:32;;;;;;;19.75;10.27;;;2.40;99.90;;;;;;5102461;28;20048;-87
2023/12/05 09:25:58;;;;;;;22.15;11.63;;;2.40;99.90;;;;;;5111499;27;20042;-88
2023/12/05 09:28:23;;;;;;;17.83;9.95;;;2.40;99.90;;;;;;5108052;27;20123;-87
2023/12/05 09:30:49;;;;;;;19.60;9.77;;;2.40;99.90;;;;;;5093756;28;20042;-87
2023/12/05 09:33:14;;;;;;;21.63;12.63;;;2.40;99.90;;;;;;5101100;27;20433;-87
2023/12/05 09:35:40;;;;;;;19.55;10.18;;;2.50;99.90;;;;;;5092093;28;20077;-87
2023/12/05 09:38:07;;;;;;;21.63;9.90;;;2.40;99.90;;;;;;5114577;27;20027;-87
2023/12/05 09:40:33;;;;;;;18.85;9.30;;;2.40;99.90;;;;;;5130458;27;20494;-87
2023/12/05 09:43:01;;;;;;;18.75;9.23;;;2.40;99.90;;;;;;5113649;27;20042;-88
2023/12/05 09:45:31;;;;;;;22.67;12.13;;;2.40;99.90;;;;;;5101172;28;20035;-87
2023/12/05 09:48:00;;;;;;;16.38;9.15;;;2.50;99.90;;;;;;5144914;27;20043;-87
2023/12/05 09:50:27;;;;;;;19.00;9.18;;;2.50;99.90;;;;;;5113673;27;20037;-87
2023/12/05 09:52:55;;;;;;;21.02;10.23;;;2.50;99.90;;;;;;5093277;28;20446;-87
2023/12/05 09:55:21;;;;;;;18.23;10.70;;;2.50;99.90;;;;;;5113461;27;20035;-87
2023/12/05 09:57:48;;;;;;;22.52;11.32;;;2.50;99.90;;;;;;5093613;28;20039;-87
2023/12/05 10:00:14;;;;;;;20.52;9.65;;;2.50;99.90;;;;;;5092930;28;20039;-87
2023/12/05 10:02:40;;;;;;;17.88;9.35;;;2.50;99.90;;;;;;5093808;28;20047;-87
2023/12/05 10:05:08;;;;;;;19.48;9.02;;;2.50;99.90;;;;;;5093626;28;20050;-87
2023/12/05 10:07:34;;;;;;;21.50;10.95;;;2.50;99.90;;;;;;5112307;27;20114;-88
2023/12/05 10:10:04;;;;;;;21.98;11.38;;;2.50;99.90;;;;;;5104116;28;20178;-87
2023/12/05 10:12:30;;;;;;;19.58;9.52;;;2.50;99.90;;;;;;5090964;28;20032;-87
2023/12/05 10:14:56;;;;;;;21.48;11.50;;;2.50;99.90;;;;;;5110316;27;20047;-88
2023/12/05 10:17:22;;;;;;;19.50;9.82;;;2.50;99.90;;;;;;5109603;28;20032;-88
2023/12/05 10:19:48;;;;;;;22.42;11.52;;;2.50;99.90;;;;;;5108945;28;20044;-88
2023/12/05 10:22:14;;;;;;;21.23;12.02;;;2.50;99.90;;;;;;5090426;28;20413;-87
2023/12/05 10:24:43;;;;;;;27.23;12.90;;;2.50;99.90;;;;;;5108371;28;20039;-87
2023/12/05 10:27:10;;;;;;;23.88;11.75;;;2.50;99.90;;;;;;5110339;27;20031;-88
2023/12/05 10:29:40;;;;;;;23.55;11.77;;;2.50;99.90;;;;;;5090642;28;20126;-88
2023/12/05 10:32:10;;;;;;;21.38;11.18;;;2.50;99.90;;;;;;5109282;28;20035;-88
2023/12/05 10:35:01;;;;;;;22.60;12.82;;;2.50;99.90;;;;;;5110404;27;20731;-87
2023/12/05 10:37:28;;;;;;;20.08;10.95;;;2.50;99.90;;;;;;5107417;28;20036;-87
2023/12/05 10:39:56;;;;;;;25.23;12.07;;;2.50;99.90;;;;;;5143595;27;20053;-88
2023/12/05 10:42:26;;;;;;;23.50;11.70;;;2.50;99.90;;;;;;5090279;28;20035;-88
2023/12/05 10:44:52;;;;;;;22.05;11.40;;;2.50;99.90;;;;;;5142941;27;20030;-87
2023/12/05 10:47:17;;;;;;;21.33;11.48;;;2.50;99.90;;;;;;5089633;28;20517;-87
2023/12/05 10:49:43;;;;;;;22.48;13.25;;;2.50;99.90;;;;;;5091901;28;20440;-87
2023/12/05 10:52:12;;;;;;;22.02;10.98;;;2.60;99.90;;;;;;5093038;28;20043;-87
2023/12/05 10:54:42;;;;;;;21.48;11.77;;;2.50;99.90;;;;;;5092194;28;20043;-87
2023/12/05 10:57:11;;;;;;;22.55;12.50;;;2.50;99.90;;;;;;5110673;28;20039;-87
2023/12/05 10:59:40;;;;;;;20.05;10.48;;;2.50;99.90;;;;;;5090786;28;20035;-87
2023/12/05 11:02:13;;;;;;;22.40;11.52;;;2.50;99.90;;;;;;5091701;28;20039;-87
2023/12/05 11:04:41;;;;;;;27.95;13.25;;;2.50;99.90;;;;;;5092962;28;20035;-88
2023/12/05 11:07:07;;;;;;;21.48;11.57;;;2.50;99.90;;;;;;5092201;28;20517;-87
2023/12/05 11:09:33;;;;;;;22.40;9.77;;;2.50;99.90;;;;;;5092756;28;20078;-87
2023/12/05 11:12:03;;;;;;;23.73;11.13;;;2.50;99.90;;;;;;5092305;28;20067;-87
2023/12/05 11:14:33;;;;;;;18.73;9.98;;;2.60;99.90;;;;;;5108933;28;20047;-87
2023/12/05 11:17:00;;;;;;;19.08;11.00;;;2.50;99.90;;;;;;5110569;28;20426;-87
2023/12/05 11:19:47;;;;;;;18.80;10.40;;;2.60;99.90;;;;;;5091865;28;20035;-87
2023/12/05 11:22:36;;;;;;;25.52;12.15;;;2.60;99.90;;;;;;5106086;28;20042;-87
2023/12/05 11:25:15;;;;;;;19.65;11.27;;;2.60;99.90;;;;;;5123878;27;20122;-87
2023/12/05 11:27:41;;;;;;;19.15;10.20;;;2.60;99.90;;;;;;5096066;28;20047;-87
2023/12/05 11:30:06;;;;;;;19.33;10.13;;;2.60;99.90;;;;;;5099149;28;20122;-87
2023/12/05 11:32:59;;;;;;;21.58;9.45;;;2.60;99.90;;;;;;5095228;28;20046;-87
2023/12/05 11:35:59;;;;;;;21.03;11.13;;;2.60;99.90;;;;;;5102011;27;20417;-87
2023/12/05 11:38:26;;;;;;;19.77;10.40;;;2.60;99.90;;;;;;5111424;28;20027;-87
2023/12/05 11:41:15;;;;;;;24.02;11.20;;;2.70;99.90;;;;;;5096079;28;20484;-87
2023/12/05 11:43:44;;;;;;;23.75;12.45;;;2.60;99.90;;;;;;5093162;28;20043;-87
2023/12/05 11:46:09;;;;;;;22.10;10.43;;;2.60;99.90;;;;;;5095280;28;20039;-87
2023/12/05 11:48:35;;;;;;;17.23;9.98;;;2.60;99.90;;;;;;5112684;27;20042;-87
2023/12/05 11:51:04;;;;;;;22.80;11.52;;;2.60;99.90;;;;;;5112740;28;20032;-87
2023/12/05 11:53:30;;;;;;;20.75;10.30;;;2.60;99.90;;;;;;5102192;27;20035;-86
2023/12/05 11:55:57;;;;;;;18.77;10.07;;;2.70;99.90;;;;;;5098972;27;20061;-87
2023/12/05 11:58:30;;;;;;;21.67;9.25;;;2.60;99.90;;;;;;5120745;27;20376;-84
2023/12/05 12:01:07;;;;;;;16.50;10.13;;;2.70;99.90;;;;;;5117201;27;20032;-87
2023/12/05 12:03:53;;;;;;;16.70;8.98;;;2.60;99.90;;;;;;5146838;27;20032;-88
2023/12/05 12:06:21;;;;;;;20.67;11.65;;;2.60;99.90;;;;;;5101736;28;20032;-87
2023/12/05 12:08:53;;;;;;;22.15;10.35;;;2.60;99.90;;;;;;5118502;27;20113;-87
2023/12/05 12:11:22;;;;;;;20.13;11.20;;;2.60;99.90;;;;;;5104422;27;20039;-87
2023/12/05 12:13:51;;;;;;;25.33;12.10;;;2.60;99.90;;;;;;5084148;28;20274;-87
2023/12/05 12:16:19;;;;;;;22.10;12.23;;;2.60;99.90;;;;;;5091414;28;20036;-87
2023/12/05 12:18:45;;;;;;;23.35;13.20;;;2.70;99.90;;;;;;5111991;28;20380;-87
2023/12/05 12:21:10;;;;;;;21.08;10.63;;;2.70;99.90;;;;;;5146801;27;20487;-86
2023/12/05 12:23:37;;;;;;;19.83;9.98;;;2.70;99.90;;;;;;5138502;27;20040;-87
2023/12/05 12:26:08;;;;;;;20.52;10.35;;;2.70;99.90;;;;;;5111306;28;20031;-87
2023/12/05 12:28:33;;;;;;;18.58;9.88;;;2.70;99.90;;;;;;5111637;27;20074;-87
2023/12/05 12:31:00;;;;;;;23.05;10.90;;;2.80;99.90;;;;;;5111399;27;20071;-87
2023/12/05 12:33:40;;;;;;;25.60;12.13;;;2.80;99.90;;;;;;5090882;28;20487;-87
2023/12/05 12:36:08;;;;;;;23.90;11.88;;;2.80;99.90;;;;;;5092365;28;20063;-87
2023/12/05 12:38:34;;;;;;;23.58;11.73;;;2.80;99.90;;;;;;5092777;28;20032;-87
2023/12/05 12:41:01;;;;;;;18.77;10.55;;;2.80;99.90;;;;;;5145225;27;20034;-87
2023/12/05 12:43:26;;;;;;;20.60;10.85;;;2.80;99.90;;;;;;5145433;27;20057;-87
2023/12/05 12:45:52;;;;;;;19.23;8.13;;;2.80;99.90;;;;;;5094877;28;20051;-87